createdAt,value
2023-03-22T00:01:20.638Z,13.50
2023-03-22T00:02:42.874Z,14.30
2023-03-22T00:04:05.165Z,14.10
2023-03-22T00:05:27.366Z,14.70
2023-03-22T00:06:49.384Z,13.80
2023-03-22T00:08:13.384Z,14.40
2023-03-22T00:09:36.398Z,13.60
2023-03-22T00:10:58.519Z,13.60
2023-03-22T00:12:20.729Z,13.50
2023-03-22T00:13:43.921Z,15.00
2023-03-22T00:15:07.559Z,14.23
2023-03-22T00:16:29.803Z,14.30
2023-03-22T00:17:52.127Z,13.83
2023-03-22T00:19:14.138Z,13.30
2023-03-22T00:20:38.216Z,13.10
2023-03-22T00:22:01.166Z,13.87
2023-03-22T00:23:24.253Z,14.10
2023-03-22T00:24:46.252Z,14.07
2023-03-22T00:26:10.318Z,16.70
2023-03-22T00:27:32.633Z,18.43
2023-03-22T00:28:54.712Z,14.50
2023-03-22T00:30:16.914Z,13.93
2023-03-22T00:31:39.097Z,15.90
2023-03-22T00:33:01.180Z,16.57
2023-03-22T00:34:23.516Z,16.43
2023-03-22T00:35:53.718Z,15.00
2023-03-22T00:37:18.541Z,15.40
2023-03-22T00:38:43.216Z,14.07
2023-03-22T00:40:10.859Z,16.03
2023-03-22T00:41:32.916Z,14.13
2023-03-22T00:42:55.191Z,15.00
2023-03-22T00:44:17.409Z,15.10
2023-03-22T00:45:41.027Z,16.17
2023-03-22T00:47:03.234Z,15.07
2023-03-22T00:48:25.469Z,14.30
2023-03-22T00:49:47.588Z,15.30
2023-03-22T00:51:10.458Z,15.07
2023-03-22T00:52:32.713Z,15.13
2023-03-22T00:53:54.781Z,14.77
2023-03-22T00:55:16.928Z,16.27
2023-03-22T00:56:38.986Z,14.73
2023-03-22T00:58:00.997Z,15.40
2023-03-22T00:59:23.494Z,17.83
2023-03-22T01:00:45.776Z,16.20
2023-03-22T01:02:08.238Z,13.80
2023-03-22T01:03:30.406Z,15.10
2023-03-22T01:04:53.966Z,16.83
2023-03-22T01:06:16.531Z,16.60
2023-03-22T01:07:41.595Z,14.33
2023-03-22T01:09:04.929Z,15.73
2023-03-22T01:10:26.972Z,15.20
2023-03-22T01:11:48.996Z,15.20
2023-03-22T01:13:12.370Z,14.80
2023-03-22T01:14:34.412Z,14.93
2023-03-22T01:15:56.608Z,15.90
2023-03-22T01:17:18.688Z,15.90
2023-03-22T01:18:40.829Z,15.07
2023-03-22T01:20:04.303Z,16.80
2023-03-22T01:21:26.406Z,14.90
2023-03-22T01:22:48.756Z,15.40
2023-03-22T01:24:10.851Z,15.33
2023-03-22T01:25:32.973Z,15.77
2023-03-22T01:26:55.036Z,15.40
2023-03-22T01:28:17.077Z,14.23
2023-03-22T01:29:39.153Z,15.50
2023-03-22T01:31:02.670Z,15.63
2023-03-22T01:32:24.835Z,15.53
2023-03-22T01:33:46.895Z,15.50
2023-03-22T01:35:10.037Z,15.10
2023-03-22T01:36:32.101Z,15.30
2023-03-22T01:37:54.185Z,15.43
2023-03-22T01:39:16.886Z,16.83
2023-03-22T01:40:39.757Z,17.20
2023-03-22T01:42:03.383Z,15.50
2023-03-22T01:43:26.540Z,16.03
2023-03-22T01:45:18.997Z,15.57
2023-03-22T01:46:42.403Z,15.80
2023-03-22T01:48:46.026Z,15.80
2023-03-22T01:50:08.999Z,14.90
2023-03-22T01:51:31.232Z,15.57
2023-03-22T01:52:55.382Z,15.93
2023-03-22T01:54:22.205Z,14.87
2023-03-22T01:55:45.465Z,15.83
2023-03-22T01:57:07.493Z,16.17
2023-03-22T01:58:29.869Z,15.37
2023-03-22T01:59:52.199Z,15.80
2023-03-22T02:01:14.397Z,16.17
2023-03-22T02:02:37.046Z,16.47
2023-03-22T02:04:12.210Z,17.00
2023-03-22T02:05:36.232Z,15.53
2023-03-22T02:06:59.794Z,17.33
2023-03-22T02:08:22.006Z,15.67
2023-03-22T02:09:44.096Z,16.87
2023-03-22T02:11:06.606Z,16.13
2023-03-22T02:12:37.537Z,17.60
2023-03-22T02:14:12.599Z,17.30
2023-03-22T02:15:48.357Z,16.80
2023-03-22T02:17:16.155Z,16.23
2023-03-22T02:19:15.840Z,16.33
2023-03-22T02:21:20.784Z,16.00
2023-03-22T02:23:19.640Z,15.83
2023-03-22T02:24:56.895Z,16.63
2023-03-22T02:26:30.703Z,16.90
2023-03-22T02:28:07.758Z,16.13
2023-03-22T02:29:46.727Z,14.90
2023-03-22T02:31:30.558Z,15.80
2023-03-22T02:33:14.046Z,15.33
2023-03-22T02:35:01.857Z,16.80
2023-03-22T02:36:57.577Z,16.33
2023-03-22T02:38:31.509Z,16.73
2023-03-22T02:39:56.518Z,16.97
2023-03-22T02:41:33.558Z,16.83
2023-03-22T02:43:12.202Z,16.27
2023-03-22T02:45:03.778Z,16.90
2023-03-22T02:47:05.003Z,17.20
2023-03-22T02:48:51.311Z,16.73
2023-03-22T02:50:27.203Z,16.90
2023-03-22T02:52:10.269Z,15.77
2023-03-22T02:53:48.356Z,16.73
2023-03-22T02:55:39.659Z,17.30
2023-03-22T02:57:16.839Z,16.43
2023-03-22T02:58:45.724Z,17.17
2023-03-22T03:00:13.052Z,18.20
2023-03-22T03:01:48.408Z,18.47
2023-03-22T03:03:18.236Z,18.70
2023-03-22T03:04:46.189Z,18.37
2023-03-22T03:06:15.831Z,17.50
2023-03-22T03:07:38.835Z,17.90
2023-03-22T03:09:04.858Z,17.70
2023-03-22T03:10:27.635Z,18.90
2023-03-22T03:11:52.508Z,17.17
2023-03-22T03:13:17.239Z,17.93
2023-03-22T03:14:39.299Z,18.63
2023-03-22T03:16:03.876Z,18.77
2023-03-22T03:17:47.364Z,17.73
2023-03-22T03:19:32.916Z,16.03
2023-03-22T03:21:21.909Z,17.47
2023-03-22T03:22:47.130Z,18.73
2023-03-22T03:24:25.873Z,17.17
2023-03-22T03:26:22.320Z,16.90
2023-03-22T03:27:52.147Z,17.33
2023-03-22T03:29:28.731Z,17.70
2023-03-22T03:31:10.391Z,17.70
2023-03-22T03:32:38.344Z,15.37
2023-03-22T03:34:27.602Z,17.53
2023-03-22T03:36:01.341Z,16.20
2023-03-22T03:37:32.728Z,17.10
2023-03-22T03:38:56.515Z,16.73
2023-03-22T03:40:27.884Z,18.33
2023-03-22T03:41:53.212Z,17.50
2023-03-22T03:43:16.015Z,16.93
2023-03-22T03:44:39.127Z,16.90
2023-03-22T03:46:01.742Z,18.03
2023-03-22T03:47:25.525Z,17.43
2023-03-22T03:48:49.872Z,17.63
2023-03-22T03:50:15.564Z,17.47
2023-03-22T03:51:56.284Z,17.10
2023-03-22T03:53:18.503Z,17.20
2023-03-22T03:54:40.993Z,16.47
2023-03-22T03:56:03.086Z,16.77
2023-03-22T03:57:25.325Z,17.27
2023-03-22T03:58:47.598Z,16.20
2023-03-22T04:00:10.965Z,16.27
2023-03-22T04:01:33.033Z,16.07
2023-03-22T04:02:55.241Z,16.80
2023-03-22T04:04:26.704Z,16.50
2023-03-22T04:05:48.970Z,16.73
2023-03-22T04:07:11.172Z,17.83
2023-03-22T04:08:33.199Z,16.70
2023-03-22T04:09:55.376Z,18.13
2023-03-22T04:11:17.408Z,17.17
2023-03-22T04:12:39.516Z,15.77
2023-03-22T04:14:01.550Z,16.60
2023-03-22T04:15:24.652Z,17.60
2023-03-22T04:16:47.096Z,16.97
2023-03-22T04:18:11.220Z,19.67
2023-03-22T04:19:33.645Z,16.60
2023-03-22T04:20:57.118Z,16.20
2023-03-22T04:22:19.307Z,17.93
2023-03-22T04:23:41.359Z,16.90
2023-03-22T04:25:03.641Z,15.83
2023-03-22T04:26:26.817Z,15.70
2023-03-22T04:27:51.171Z,16.30
2023-03-22T04:29:14.141Z,16.60
2023-03-22T04:30:36.545Z,16.80
2023-03-22T04:31:58.629Z,16.97
2023-03-22T04:33:22.746Z,17.10
2023-03-22T04:34:46.337Z,15.50
2023-03-22T04:36:10.295Z,16.30
2023-03-22T04:37:32.329Z,15.57
2023-03-22T04:38:54.340Z,16.40
2023-03-22T04:40:17.463Z,15.93
2023-03-22T04:41:39.631Z,16.77
2023-03-22T04:43:03.967Z,16.07
2023-03-22T04:44:26.152Z,16.57
2023-03-22T04:45:48.746Z,15.50
2023-03-22T04:47:11.148Z,23.47
2023-03-22T04:48:33.159Z,17.60
2023-03-22T04:49:55.371Z,18.33
2023-03-22T04:51:17.437Z,16.50
2023-03-22T04:52:39.551Z,16.87
2023-03-22T04:54:01.711Z,17.20
2023-03-22T04:55:23.762Z,16.93
2023-03-22T04:56:45.862Z,16.93
2023-03-22T04:58:07.881Z,17.00
2023-03-22T04:59:30.106Z,17.30
2023-03-22T05:00:54.610Z,17.90
2023-03-22T05:02:17.105Z,16.47
2023-03-22T05:03:39.576Z,16.87
2023-03-22T05:05:01.625Z,16.47
2023-03-22T05:06:25.520Z,16.10
2023-03-22T05:07:47.584Z,17.30
2023-03-22T05:09:10.183Z,16.90
2023-03-22T05:10:32.241Z,16.70
2023-03-22T05:11:54.320Z,16.60
2023-03-22T05:13:16.537Z,15.10
2023-03-22T05:14:38.800Z,16.97
2023-03-22T05:16:01.110Z,16.83
2023-03-22T05:17:23.298Z,15.67
2023-03-22T05:18:45.567Z,16.70
2023-03-22T05:20:09.998Z,15.60
2023-03-22T05:21:36.790Z,15.37
2023-03-22T05:23:02.838Z,15.50
2023-03-22T05:24:24.964Z,15.77
2023-03-22T05:25:52.240Z,15.47
2023-03-22T05:27:14.414Z,14.60
2023-03-22T05:28:38.510Z,15.00
2023-03-22T05:30:02.097Z,15.60
2023-03-22T05:31:24.514Z,14.43
2023-03-22T05:32:47.425Z,14.67
2023-03-22T05:34:09.725Z,14.73
2023-03-22T05:35:33.552Z,14.63
2023-03-22T05:36:55.582Z,15.27
2023-03-22T05:38:17.666Z,14.13
2023-03-22T05:39:39.772Z,16.87
2023-03-22T05:41:01.870Z,15.90
2023-03-22T05:42:23.914Z,14.27
2023-03-22T05:43:46.006Z,14.13
2023-03-22T05:45:08.802Z,14.90
2023-03-22T05:46:30.854Z,14.23
2023-03-22T05:47:53.290Z,15.77
2023-03-22T05:49:15.376Z,14.80
2023-03-22T05:50:37.857Z,14.83
2023-03-22T05:52:00.077Z,14.17
2023-03-22T05:53:22.248Z,14.20
2023-03-22T05:54:44.271Z,13.87
2023-03-22T05:56:09.961Z,14.80
2023-03-22T05:57:32.219Z,14.87
2023-03-22T05:58:54.323Z,14.10
2023-03-22T06:00:18.097Z,14.13
2023-03-22T06:01:40.155Z,13.70
2023-03-22T06:03:03.839Z,13.83
2023-03-22T06:04:25.997Z,12.57
2023-03-22T06:05:50.805Z,12.90
2023-03-22T06:07:13.467Z,12.97
2023-03-22T06:08:35.506Z,12.40
2023-03-22T06:09:57.697Z,13.33
2023-03-22T06:11:19.855Z,12.90
2023-03-22T06:12:41.941Z,12.37
2023-03-22T06:14:04.038Z,12.93
2023-03-22T06:15:26.162Z,13.20
2023-03-22T06:16:48.212Z,11.90
2023-03-22T06:18:10.535Z,12.77
2023-03-22T06:19:32.680Z,11.97
2023-03-22T06:20:54.748Z,12.20
2023-03-22T06:22:17.995Z,14.97
2023-03-22T06:23:40.224Z,12.40
2023-03-22T06:25:02.336Z,12.23
2023-03-22T06:26:24.397Z,12.50
2023-03-22T06:27:46.491Z,11.97
2023-03-22T06:29:08.564Z,12.73
2023-03-22T06:30:30.802Z,12.97
2023-03-22T06:31:52.880Z,12.10
2023-03-22T06:33:14.937Z,11.10
2023-03-22T06:34:54.269Z,12.67
2023-03-22T06:36:16.355Z,12.00
2023-03-22T06:37:38.413Z,12.03
2023-03-22T06:39:02.519Z,11.17
2023-03-22T06:40:24.675Z,11.43
2023-03-22T06:41:46.822Z,11.50
2023-03-22T06:43:08.886Z,12.17
2023-03-22T06:44:31.077Z,12.50
2023-03-22T06:45:53.155Z,12.17
2023-03-22T06:47:15.356Z,11.47
2023-03-22T06:48:37.496Z,12.00
2023-03-22T06:49:59.643Z,11.97
2023-03-22T06:51:21.710Z,11.23
2023-03-22T06:52:43.835Z,11.53
2023-03-22T06:54:06.168Z,11.70
2023-03-22T06:55:28.673Z,11.90
2023-03-22T06:56:51.040Z,11.00
2023-03-22T06:58:13.385Z,11.10
2023-03-22T06:59:35.961Z,11.43
2023-03-22T07:00:58.396Z,11.77
2023-03-22T07:02:21.476Z,11.60
2023-03-22T07:03:43.701Z,11.93
2023-03-22T07:05:06.242Z,10.47
2023-03-22T07:06:28.594Z,11.07
2023-03-22T07:07:50.772Z,11.80
2023-03-22T07:09:13.037Z,10.30
2023-03-22T07:10:35.422Z,12.00
2023-03-22T07:11:57.652Z,11.03
2023-03-22T07:13:19.916Z,11.10
2023-03-22T07:14:42.251Z,12.50
2023-03-22T07:16:04.825Z,11.43
2023-03-22T07:17:27.026Z,10.60
2023-03-22T07:18:49.533Z,10.93
2023-03-22T07:20:11.866Z,9.87
2023-03-22T07:21:34.131Z,10.03
2023-03-22T07:22:56.365Z,10.70
2023-03-22T07:24:18.693Z,10.00
2023-03-22T07:25:40.957Z,11.50
2023-03-22T07:27:03.292Z,10.87
2023-03-22T07:28:25.789Z,10.40
2023-03-22T07:29:48.120Z,9.93
2023-03-22T07:31:11.845Z,10.30
2023-03-22T07:32:33.999Z,10.80
2023-03-22T07:33:56.497Z,10.33
2023-03-22T07:35:19.111Z,10.20
2023-03-22T07:36:41.285Z,9.87
2023-03-22T07:38:04.415Z,11.20
2023-03-22T07:39:28.892Z,10.60
2023-03-22T07:40:54.919Z,10.87
2023-03-22T07:42:17.367Z,9.77
2023-03-22T07:43:52.756Z,10.10
2023-03-22T07:45:17.432Z,10.20
2023-03-22T07:46:39.640Z,10.00
2023-03-22T07:48:01.926Z,10.20
2023-03-22T07:49:24.245Z,9.13
2023-03-22T07:50:46.772Z,9.10
2023-03-22T07:52:09.003Z,10.60
2023-03-22T07:53:31.215Z,9.50
2023-03-22T07:54:53.322Z,9.97
2023-03-22T07:56:15.617Z,10.53
2023-03-22T07:57:38.320Z,9.80
2023-03-22T07:59:00.655Z,9.90
2023-03-22T08:00:23.230Z,8.87
2023-03-22T08:01:45.613Z,9.93
2023-03-22T08:03:07.919Z,9.20
2023-03-22T08:04:30.878Z,8.67
2023-03-22T08:05:53.157Z,8.97
2023-03-22T08:07:15.561Z,8.70
2023-03-22T08:08:38.407Z,9.63
2023-03-22T08:10:00.707Z,9.33
2023-03-22T08:11:22.773Z,9.10
2023-03-22T08:12:44.930Z,9.70
2023-03-22T08:14:07.536Z,10.00
2023-03-22T08:15:30.082Z,9.37
2023-03-22T08:16:52.284Z,9.80
2023-03-22T08:18:14.488Z,9.47
2023-03-22T08:19:36.891Z,9.10
2023-03-22T08:21:00.324Z,9.70
2023-03-22T08:22:29.714Z,9.53
2023-03-22T08:23:51.860Z,8.60
2023-03-22T08:25:14.322Z,8.60
2023-03-22T08:26:37.563Z,9.10
2023-03-22T08:27:59.691Z,9.17
2023-03-22T08:29:23.473Z,8.73
2023-03-22T08:30:47.676Z,8.27
2023-03-22T08:32:09.990Z,9.23
2023-03-22T08:33:33.723Z,8.40
2023-03-22T08:34:56.099Z,9.90
2023-03-22T08:36:21.647Z,8.70
2023-03-22T08:37:43.796Z,9.77
2023-03-22T08:39:06.447Z,9.03
2023-03-22T08:40:28.760Z,9.07
2023-03-22T08:41:50.932Z,8.50
2023-03-22T08:43:13.108Z,7.90
2023-03-22T08:44:35.334Z,8.33
2023-03-22T08:45:58.299Z,8.53
2023-03-22T08:47:20.444Z,8.00
2023-03-22T08:48:50.324Z,7.70
2023-03-22T08:50:13.018Z,8.30
2023-03-22T08:51:35.487Z,8.10
2023-03-22T08:52:58.065Z,7.73
2023-03-22T08:54:20.139Z,9.30
2023-03-22T08:55:44.915Z,7.60
2023-03-22T08:57:09.510Z,8.27
2023-03-22T08:58:31.851Z,8.20
2023-03-22T08:59:54.487Z,7.20
2023-03-22T09:01:17.953Z,7.93
2023-03-22T09:02:40.167Z,7.57
2023-03-22T09:04:03.573Z,8.50
2023-03-22T09:05:25.734Z,7.63
2023-03-22T09:06:47.810Z,7.77
2023-03-22T09:08:18.156Z,7.90
2023-03-22T09:09:40.950Z,7.93
2023-03-22T09:11:03.242Z,8.57
2023-03-22T09:12:26.146Z,6.93
2023-03-22T09:13:49.469Z,7.30
2023-03-22T09:15:11.625Z,7.47
2023-03-22T09:16:34.865Z,8.40
2023-03-22T09:17:57.199Z,7.30
2023-03-22T09:19:19.353Z,7.70
2023-03-22T09:20:42.022Z,8.13
2023-03-22T09:22:04.407Z,8.40
2023-03-22T09:23:27.044Z,8.00
2023-03-22T09:24:49.228Z,8.27
2023-03-22T09:26:11.599Z,7.30
2023-03-22T09:27:33.924Z,8.03
2023-03-22T09:28:56.253Z,7.60
2023-03-22T09:30:18.536Z,7.93
2023-03-22T09:31:40.893Z,7.77
2023-03-22T09:33:03.591Z,7.03
2023-03-22T09:34:25.856Z,8.00
2023-03-22T09:35:47.952Z,7.17
2023-03-22T09:37:12.962Z,7.57
2023-03-22T09:38:35.739Z,7.87
2023-03-22T09:39:58.075Z,7.20
2023-03-22T09:41:25.271Z,7.43
2023-03-22T09:42:52.119Z,6.97
2023-03-22T09:44:40.528Z,6.63
2023-03-22T09:46:05.491Z,8.60
2023-03-22T09:47:54.629Z,7.20
2023-03-22T09:49:20.974Z,7.10
2023-03-22T09:50:50.509Z,6.87
2023-03-22T09:52:15.706Z,7.10
2023-03-22T09:53:37.904Z,7.80
2023-03-22T09:55:00.493Z,7.17
2023-03-22T09:56:29.454Z,7.40
2023-03-22T09:58:14.452Z,7.57
2023-03-22T09:59:54.189Z,7.83
2023-03-22T10:01:17.955Z,7.07
2023-03-22T10:02:53.812Z,7.17
2023-03-22T10:04:45.854Z,6.70
2023-03-22T10:06:19.012Z,7.10
2023-03-22T10:08:11.793Z,7.87
2023-03-22T10:09:59.941Z,6.97
2023-03-22T10:12:00.744Z,6.40
2023-03-22T10:13:33.341Z,7.43
2023-03-22T10:15:03.800Z,6.50
2023-03-22T10:16:33.159Z,6.63
2023-03-22T10:17:57.635Z,7.03
2023-03-22T10:19:24.928Z,7.07
2023-03-22T10:20:57.330Z,7.17
2023-03-22T10:22:25.016Z,6.77
2023-03-22T10:24:00.444Z,6.60
2023-03-22T10:25:30.979Z,6.20
2023-03-22T10:26:53.907Z,7.20
2023-03-22T10:28:23.749Z,6.80
2023-03-22T10:29:53.086Z,5.60
2023-03-22T10:31:21.221Z,6.40
2023-03-22T10:32:57.540Z,6.50
2023-03-22T10:34:28.065Z,6.33
2023-03-22T10:35:51.642Z,6.40
2023-03-22T10:37:22.352Z,7.73
2023-03-22T10:38:52.406Z,7.47
2023-03-22T10:40:24.536Z,7.33
2023-03-22T10:41:47.575Z,6.00
2023-03-22T10:43:38.122Z,7.17
2023-03-22T10:45:08.719Z,6.90
2023-03-22T10:46:39.547Z,5.50
2023-03-22T10:48:19.179Z,7.10
2023-03-22T10:49:48.335Z,6.47
2023-03-22T10:51:32.510Z,7.27
2023-03-22T10:53:26.623Z,6.33
2023-03-22T10:54:48.842Z,6.03
2023-03-22T10:56:20.007Z,7.23
2023-03-22T10:57:46.510Z,6.93
2023-03-22T10:59:11.975Z,6.60
2023-03-22T11:00:34.299Z,6.63
2023-03-22T11:01:57.097Z,6.20
2023-03-22T11:03:28.282Z,6.90
2023-03-22T11:04:56.426Z,7.10
2023-03-22T11:06:24.360Z,6.77
2023-03-22T11:07:46.497Z,6.37
2023-03-22T11:09:16.473Z,6.97
2023-03-22T11:10:38.739Z,6.03
2023-03-22T11:12:01.311Z,7.43
2023-03-22T11:13:24.434Z,6.70
2023-03-22T11:14:46.703Z,6.60
2023-03-22T11:16:08.997Z,6.43
2023-03-22T11:17:31.744Z,6.13
2023-03-22T11:18:55.563Z,7.30
2023-03-22T11:20:19.326Z,6.80
2023-03-22T11:21:42.919Z,6.60
2023-03-22T11:23:06.929Z,6.57
2023-03-22T11:24:32.175Z,6.30
2023-03-22T11:25:58.716Z,6.23
2023-03-22T11:27:25.187Z,6.73
2023-03-22T11:28:50.354Z,6.63
2023-03-22T11:30:26.025Z,7.20
2023-03-22T11:32:00.260Z,6.10
2023-03-22T11:33:25.005Z,6.07
2023-03-22T11:34:47.443Z,6.60
2023-03-22T11:36:18.858Z,7.03
2023-03-22T11:37:42.834Z,7.20
2023-03-22T11:39:08.158Z,6.93
2023-03-22T11:40:33.389Z,7.07
2023-03-22T11:42:01.800Z,7.37
2023-03-22T11:43:28.227Z,6.73
2023-03-22T11:44:51.763Z,6.93
2023-03-22T11:46:19.360Z,6.97
2023-03-22T11:47:42.089Z,7.20
2023-03-22T11:49:14.794Z,7.23
2023-03-22T11:50:40.157Z,6.80
2023-03-22T11:52:12.724Z,6.40
2023-03-22T11:53:38.989Z,5.97
2023-03-22T11:55:02.671Z,5.90
2023-03-22T11:56:29.745Z,5.83
2023-03-22T11:57:55.909Z,6.57
2023-03-22T11:59:25.923Z,5.30
2023-03-22T12:00:52.386Z,6.13
2023-03-22T12:02:31.721Z,5.70
2023-03-22T12:03:57.340Z,4.80
2023-03-22T12:05:28.666Z,5.63
2023-03-22T12:06:55.595Z,6.43
2023-03-22T12:08:47.482Z,5.43
2023-03-22T12:10:21.381Z,5.40
2023-03-22T12:11:57.393Z,4.97
2023-03-22T12:13:21.633Z,4.47
2023-03-22T12:14:51.743Z,5.30
2023-03-22T12:16:18.945Z,5.23
2023-03-22T12:17:47.369Z,4.37
2023-03-22T12:19:30.594Z,4.60
2023-03-22T12:20:56.299Z,4.93
2023-03-22T12:22:34.309Z,4.97
2023-03-22T12:24:01.096Z,4.80
2023-03-22T12:25:29.022Z,5.00
2023-03-22T12:26:54.724Z,4.57
2023-03-22T12:28:20.318Z,4.43
2023-03-22T12:30:08.459Z,4.90
2023-03-22T12:31:42.560Z,4.60
2023-03-22T12:33:14.437Z,4.57
2023-03-22T12:34:42.317Z,4.37
2023-03-22T12:36:06.933Z,4.50
2023-03-22T12:37:33.836Z,4.00
2023-03-22T12:38:58.639Z,4.70
2023-03-22T12:40:21.894Z,3.70
2023-03-22T12:41:49.604Z,4.33
2023-03-22T12:43:41.454Z,3.73
2023-03-22T12:45:20.139Z,3.57
2023-03-22T12:46:57.121Z,3.37
2023-03-22T12:48:33.260Z,3.00
2023-03-22T12:50:08.555Z,3.60
2023-03-22T12:51:30.736Z,3.60
2023-03-22T12:52:56.621Z,3.67
2023-03-22T12:54:24.091Z,3.73
2023-03-22T12:55:47.316Z,3.67
2023-03-22T12:57:10.741Z,3.77
2023-03-22T12:58:32.876Z,3.73
2023-03-22T13:00:00.290Z,3.43
2023-03-22T13:01:33.227Z,2.87
2023-03-22T13:03:05.598Z,3.23
2023-03-22T13:04:36.484Z,3.77
2023-03-22T13:06:26.302Z,3.00
2023-03-22T13:07:48.300Z,3.70
2023-03-22T13:09:27.573Z,3.10
2023-03-22T13:11:22.015Z,3.40
2023-03-22T13:13:04.050Z,3.83
2023-03-22T13:14:50.850Z,3.23
2023-03-22T13:16:12.971Z,3.47
2023-03-22T13:17:41.106Z,3.23
2023-03-22T13:19:17.248Z,4.43
2023-03-22T13:20:41.032Z,3.50
2023-03-22T13:22:18.990Z,3.63
2023-03-22T13:24:01.773Z,3.30
2023-03-22T13:25:34.373Z,4.10
2023-03-22T13:26:59.351Z,3.40
2023-03-22T13:28:26.416Z,3.63
2023-03-22T13:29:53.995Z,4.20
2023-03-22T13:31:38.079Z,3.70
2023-03-22T13:33:08.650Z,4.07
2023-03-22T13:34:37.708Z,3.57
2023-03-22T13:36:19.802Z,4.07
2023-03-22T13:37:49.375Z,3.83
2023-03-22T13:39:12.564Z,4.63
2023-03-22T13:40:43.280Z,4.33
2023-03-22T13:42:21.614Z,4.00
2023-03-22T13:43:44.216Z,4.47
2023-03-22T13:45:33.299Z,5.23
2023-03-22T13:46:59.845Z,4.77
2023-03-22T13:48:34.864Z,4.80
2023-03-22T13:50:09.546Z,5.40
2023-03-22T13:51:33.202Z,5.47
2023-03-22T13:53:07.572Z,6.30
2023-03-22T13:54:48.251Z,5.83
2023-03-22T13:56:15.566Z,5.27
2023-03-22T13:57:45.244Z,6.10
2023-03-22T13:59:10.203Z,5.97
2023-03-22T14:00:32.213Z,6.43
2023-03-22T14:01:57.699Z,6.50
2023-03-22T14:03:32.775Z,7.20
2023-03-22T14:04:58.743Z,6.53
2023-03-22T14:06:25.596Z,6.10
2023-03-22T14:07:52.819Z,6.40
2023-03-22T14:09:32.530Z,6.13
2023-03-22T14:11:31.478Z,6.60
2023-03-22T14:13:04.039Z,6.93
2023-03-22T14:14:31.849Z,6.57
2023-03-22T14:16:04.294Z,6.70
2023-03-22T14:17:50.628Z,7.00
2023-03-22T14:19:23.142Z,7.73
2023-03-22T14:20:50.844Z,7.33
